sensor_id;sensor_type;location;lat;lon;timestamp;temperature;humidity
3715;DHT22;1873;49.988;8.674;2022-10-03T00:00:01;11.00;99.90
3715;DHT22;1873;49.988;8.674;2022-10-03T00:02:46;11.00;99.90
3715;DHT22;1873;49.988;8.674;2022-10-03T00:05:33;11.00;99.90
3715;DHT22;1873;49.988;8.674;2022-10-03T00:08:12;11.00;99.90
3715;DHT22;1873;49.988;8.674;2022-10-03T00:10:52;11.00;99.90
3715;DHT22;1873;49.988;8.674;2022-10-03T00:13:26;11.00;99.90
3715;DHT22;1873;49.988;8.674;2022-10-03T00:16:06;11.00;99.90
3715;DHT22;1873;49.988;8.674;2022-10-03T00:18:48;11.00;99.90
3715;DHT22;1873;49.988;8.674;2022-10-03T00:21:34;11.00;99.90
3715;DHT22;1873;49.988;8.674;2022-10-03T00:24:40;10.90;99.90
3715;DHT22;1873;49.988;8.674;2022-10-03T00:27:13;10.90;99.90
3715;DHT22;1873;49.988;8.674;2022-10-03T00:30:00;10.70;99.90
3715;DHT22;1873;49.988;8.674;2022-10-03T00:32:40;10.70;99.90
3715;DHT22;1873;49.988;8.674;2022-10-03T00:35:23;10.70;99.90
3715;DHT22;1873;49.988;8.674;2022-10-03T00:38:11;10.60;99.90
3715;DHT22;1873;49.988;8.674;2022-10-03T00:41:22;10.50;99.90
3715;DHT22;1873;49.988;8.674;2022-10-03T00:47:37;10.30;99.90
3715;DHT22;1873;49.988;8.674;2022-10-03T00:50:39;10.30;99.90
3715;DHT22;1873;49.988;8.674;2022-10-03T00:53:35;10.40;99.90
3715;DHT22;1873;49.988;8.674;2022-10-03T00:56:24;10.50;99.90
3715;DHT22;1873;49.988;8.674;2022-10-03T00:59:17;10.50;99.90
3715;DHT22;1873;49.988;8.674;2022-10-03T01:01:49;10.50;99.90
3715;DHT22;1873;49.988;8.674;2022-10-03T01:04:38;10.40;99.90
3715;DHT22;1873;49.988;8.674;2022-10-03T01:07:23;10.30;99.90
3715;DHT22;1873;49.988;8.674;2022-10-03T01:10:01;10.20;99.90
3715;DHT22;1873;49.988;8.674;2022-10-03T01:12:59;10.20;99.90
3715;DHT22;1873;49.988;8.674;2022-10-03T01:15:40;10.30;99.90
3715;DHT22;1873;49.988;8.674;2022-10-03T01:18:18;10.30;99.90
3715;DHT22;1873;49.988;8.674;2022-10-03T01:20:56;10.20;99.90
3715;DHT22;1873;49.988;8.674;2022-10-03T01:23:50;10.20;99.90
3715;DHT22;1873;49.988;8.674;2022-10-03T01:26:47;10.20;99.90
3715;DHT22;1873;49.988;8.674;2022-10-03T01:29:24;10.20;99.90
3715;DHT22;1873;49.988;8.674;2022-10-03T01:32:16;10.20;99.90
3715;DHT22;1873;49.988;8.674;2022-10-03T01:34:47;10.20;99.90
3715;DHT22;1873;49.988;8.674;2022-10-03T01:37:24;10.20;99.90
3715;DHT22;1873;49.988;8.674;2022-10-03T01:40:02;10.30;99.90
3715;DHT22;1873;49.988;8.674;2022-10-03T01:42:38;10.30;99.90
3715;DHT22;1873;49.988;8.674;2022-10-03T01:45:20;10.30;99.90
3715;DHT22;1873;49.988;8.674;2022-10-03T01:47:56;10.30;99.90
3715;DHT22;1873;49.988;8.674;2022-10-03T01:50:30;10.30;99.90
3715;DHT22;1873;49.988;8.674;2022-10-03T01:53:05;10.20;99.90
3715;DHT22;1873;49.988;8.674;2022-10-03T01:55:53;10.30;99.90
3715;DHT22;1873;49.988;8.674;2022-10-03T01:58:27;10.20;99.90
3715;DHT22;1873;49.988;8.674;2022-10-03T02:01:05;10.20;99.90
3715;DHT22;1873;49.988;8.674;2022-10-03T02:03:42;10.20;99.90
3715;DHT22;1873;49.988;8.674;2022-10-03T02:06:20;10.10;99.90
3715;DHT22;1873;49.988;8.674;2022-10-03T02:08:56;10.10;99.90
3715;DHT22;1873;49.988;8.674;2022-10-03T02:11:35;10.10;99.90
3715;DHT22;1873;49.988;8.674;2022-10-03T02:14:14;10.10;99.90
3715;DHT22;1873;49.988;8.674;2022-10-03T02:16:54;10.10;99.90
3715;DHT22;1873;49.988;8.674;2022-10-03T02:19:50;10.10;99.90
3715;DHT22;1873;49.988;8.674;2022-10-03T02:22:32;10.00;99.90
3715;DHT22;1873;49.988;8.674;2022-10-03T02:25:11;10.10;99.90
3715;DHT22;1873;49.988;8.674;2022-10-03T02:28:21;10.10;99.90
3715;DHT22;1873;49.988;8.674;2022-10-03T02:31:13;10.00;99.90
3715;DHT22;1873;49.988;8.674;2022-10-03T02:34:05;10.00;99.90
3715;DHT22;1873;49.988;8.674;2022-10-03T02:37:03;10.00;99.90
3715;DHT22;1873;49.988;8.674;2022-10-03T02:43:04;10.00;99.90
3715;DHT22;1873;49.988;8.674;2022-10-03T02:46:03;10.10;99.90
3715;DHT22;1873;49.988;8.674;2022-10-03T02:49:01;10.10;99.90
3715;DHT22;1873;49.988;8.674;2022-10-03T02:51:54;10.10;99.90
3715;DHT22;1873;49.988;8.674;2022-10-03T02:54:55;10.20;99.90
3715;DHT22;1873;49.988;8.674;2022-10-03T02:58:11;10.20;99.90
3715;DHT22;1873;49.988;8.674;2022-10-03T03:01:16;10.20;99.90
3715;DHT22;1873;49.988;8.674;2022-10-03T03:07:21;10.30;99.90
3715;DHT22;1873;49.988;8.674;2022-10-03T03:10:32;10.20;99.90
3715;DHT22;1873;49.988;8.674;2022-10-03T03:13:19;10.20;99.90
3715;DHT22;1873;49.988;8.674;2022-10-03T03:16:27;10.20;99.90
3715;DHT22;1873;49.988;8.674;2022-10-03T03:19:25;10.20;99.90
3715;DHT22;1873;49.988;8.674;2022-10-03T03:22:27;10.20;99.90
3715;DHT22;1873;49.988;8.674;2022-10-03T03:25:20;10.20;99.90
3715;DHT22;1873;49.988;8.674;2022-10-03T03:27:57;10.20;99.90
3715;DHT22;1873;49.988;8.674;2022-10-03T03:30:35;10.10;99.90
3715;DHT22;1873;49.988;8.674;2022-10-03T03:33:12;10.10;99.90
3715;DHT22;1873;49.988;8.674;2022-10-03T03:35:56;10.20;99.90
3715;DHT22;1873;49.988;8.674;2022-10-03T03:38:38;10.20;99.90
3715;DHT22;1873;49.988;8.674;2022-10-03T03:41:35;10.20;99.90
3715;DHT22;1873;49.988;8.674;2022-10-03T03:44:29;10.20;99.90
3715;DHT22;1873;49.988;8.674;2022-10-03T03:47:15;10.20;99.90
3715;DHT22;1873;49.988;8.674;2022-10-03T03:50:04;10.20;99.90
3715;DHT22;1873;49.988;8.674;2022-10-03T03:52:44;10.20;99.90
3715;DHT22;1873;49.988;8.674;2022-10-03T03:55:32;10.20;99.90
3715;DHT22;1873;49.988;8.674;2022-10-03T03:58:17;10.10;99.90
3715;DHT22;1873;49.988;8.674;2022-10-03T04:01:06;10.10;99.90
3715;DHT22;1873;49.988;8.674;2022-10-03T04:03:47;10.10;99.90
3715;DHT22;1873;49.988;8.674;2022-10-03T04:06:32;10.10;99.90
3715;DHT22;1873;49.988;8.674;2022-10-03T04:12:05;10.00;99.90
3715;DHT22;1873;49.988;8.674;2022-10-03T04:14:57;10.00;99.90
3715;DHT22;1873;49.988;8.674;2022-10-03T04:17:41;10.00;99.90
3715;DHT22;1873;49.988;8.674;2022-10-03T04:20:47;10.00;99.90
3715;DHT22;1873;49.988;8.674;2022-10-03T04:23:28;10.00;99.90
3715;DHT22;1873;49.988;8.674;2022-10-03T04:26:10;10.00;99.90
3715;DHT22;1873;49.988;8.674;2022-10-03T04:29:15;10.00;99.90
3715;DHT22;1873;49.988;8.674;2022-10-03T04:31:55;10.00;99.90
3715;DHT22;1873;49.988;8.674;2022-10-03T04:34:37;10.00;99.90
3715;DHT22;1873;49.988;8.674;2022-10-03T04:37:16;10.10;99.90
3715;DHT22;1873;49.988;8.674;2022-10-03T04:39:57;10.10;99.90
3715;DHT22;1873;49.988;8.674;2022-10-03T04:42:39;10.20;99.90
3715;DHT22;1873;49.988;8.674;2022-10-03T04:45:23;10.20;99.90
3715;DHT22;1873;49.988;8.674;2022-10-03T04:47:59;10.10;99.90
3715;DHT22;1873;49.988;8.674;2022-10-03T04:50:37;10.10;99.90
3715;DHT22;1873;49.988;8.674;2022-10-03T04:53:32;10.10;99.90
3715;DHT22;1873;49.988;8.674;2022-10-03T04:56:15;10.20;99.90
3715;DHT22;1873;49.988;8.674;2022-10-03T04:58:53;10.20;99.90
3715;DHT22;1873;49.988;8.674;2022-10-03T05:01:30;10.30;99.90
3715;DHT22;1873;49.988;8.674;2022-10-03T05:04:06;10.30;99.90
3715;DHT22;1873;49.988;8.674;2022-10-03T05:06:45;10.30;99.90
3715;DHT22;1873;49.988;8.674;2022-10-03T05:09:23;10.30;99.90
3715;DHT22;1873;49.988;8.674;2022-10-03T05:11:58;10.30;99.90
3715;DHT22;1873;49.988;8.674;2022-10-03T05:14:43;10.30;99.90
3715;DHT22;1873;49.988;8.674;2022-10-03T05:17:20;10.30;99.90
3715;DHT22;1873;49.988;8.674;2022-10-03T05:20:11;10.20;99.90
3715;DHT22;1873;49.988;8.674;2022-10-03T05:22:45;10.10;99.90
3715;DHT22;1873;49.988;8.674;2022-10-03T05:25:25;10.20;99.90
3715;DHT22;1873;49.988;8.674;2022-10-03T05:28:03;10.20;99.90
3715;DHT22;1873;49.988;8.674;2022-10-03T05:30:41;10.20;99.90
3715;DHT22;1873;49.988;8.674;2022-10-03T05:33:21;10.10;99.90
3715;DHT22;1873;49.988;8.674;2022-10-03T05:36:09;10.10;99.90
3715;DHT22;1873;49.988;8.674;2022-10-03T05:38:59;10.10;99.90
3715;DHT22;1873;49.988;8.674;2022-10-03T05:41:32;10.10;99.90
3715;DHT22;1873;49.988;8.674;2022-10-03T05:44:04;10.20;99.90
3715;DHT22;1873;49.988;8.674;2022-10-03T05:46:43;10.20;99.90
3715;DHT22;1873;49.988;8.674;2022-10-03T05:49:29;10.10;99.90
3715;DHT22;1873;49.988;8.674;2022-10-03T05:52:26;10.20;99.90
3715;DHT22;1873;49.988;8.674;2022-10-03T05:58:05;10.10;99.90
3715;DHT22;1873;49.988;8.674;2022-10-03T06:00:52;10.20;99.90
3715;DHT22;1873;49.988;8.674;2022-10-03T06:03:59;10.20;99.90
3715;DHT22;1873;49.988;8.674;2022-10-03T06:06:50;10.30;99.90
3715;DHT22;1873;49.988;8.674;2022-10-03T06:09:43;10.40;99.90
3715;DHT22;1873;49.988;8.674;2022-10-03T06:12:19;10.30;99.90
3715;DHT22;1873;49.988;8.674;2022-10-03T06:15:09;10.30;99.90
3715;DHT22;1873;49.988;8.674;2022-10-03T06:18:00;10.40;99.90
3715;DHT22;1873;49.988;8.674;2022-10-03T06:24:29;10.40;99.90
3715;DHT22;1873;49.988;8.674;2022-10-03T06:30:20;10.40;99.90
3715;DHT22;1873;49.988;8.674;2022-10-03T06:33:26;10.40;99.90
3715;DHT22;1873;49.988;8.674;2022-10-03T06:36:34;10.40;99.90
3715;DHT22;1873;49.988;8.674;2022-10-03T06:39:36;10.40;99.90
3715;DHT22;1873;49.988;8.674;2022-10-03T06:42:51;10.40;99.90
3715;DHT22;1873;49.988;8.674;2022-10-03T06:51:53;10.30;99.90
3715;DHT22;1873;49.988;8.674;2022-10-03T06:55:12;10.40;99.90
3715;DHT22;1873;49.988;8.674;2022-10-03T07:01:07;10.30;99.90
3715;DHT22;1873;49.988;8.674;2022-10-03T07:04:06;10.40;99.90
3715;DHT22;1873;49.988;8.674;2022-10-03T07:07:02;10.50;99.90
3715;DHT22;1873;49.988;8.674;2022-10-03T07:10:09;10.50;99.90
3715;DHT22;1873;49.988;8.674;2022-10-03T07:12:59;10.40;99.90
3715;DHT22;1873;49.988;8.674;2022-10-03T07:16:04;10.50;99.90
3715;DHT22;1873;49.988;8.674;2022-10-03T07:29:08;10.80;99.90
3715;DHT22;1873;49.988;8.674;2022-10-03T07:32:03;10.80;99.90
3715;DHT22;1873;49.988;8.674;2022-10-03T07:35:02;10.80;99.90
3715;DHT22;1873;49.988;8.674;2022-10-03T07:38:09;10.80;99.90
3715;DHT22;1873;49.988;8.674;2022-10-03T07:41:19;10.90;99.90
3715;DHT22;1873;49.988;8.674;2022-10-03T07:44:09;11.00;99.90
3715;DHT22;1873;49.988;8.674;2022-10-03T07:47:19;11.10;99.90
3715;DHT22;1873;49.988;8.674;2022-10-03T07:50:05;11.10;99.90
3715;DHT22;1873;49.988;8.674;2022-10-03T07:53:03;11.20;99.90
3715;DHT22;1873;49.988;8.674;2022-10-03T07:55:55;11.30;99.90
3715;DHT22;1873;49.988;8.674;2022-10-03T07:58:41;11.40;99.90
3715;DHT22;1873;49.988;8.674;2022-10-03T08:01:28;11.60;99.90
3715;DHT22;1873;49.988;8.674;2022-10-03T08:04:24;11.70;99.90
3715;DHT22;1873;49.988;8.674;2022-10-03T08:07:08;11.80;99.90
3715;DHT22;1873;49.988;8.674;2022-10-03T08:13:31;12.10;99.90
3715;DHT22;1873;49.988;8.674;2022-10-03T08:16:27;12.40;99.90
3715;DHT22;1873;49.988;8.674;2022-10-03T08:22:43;13.00;99.90
3715;DHT22;1873;49.988;8.674;2022-10-03T08:25:25;13.30;99.90
3715;DHT22;1873;49.988;8.674;2022-10-03T08:28:09;13.50;99.90
3715;DHT22;1873;49.988;8.674;2022-10-03T08:31:00;13.60;99.90
3715;DHT22;1873;49.988;8.674;2022-10-03T08:34:05;13.70;99.90
3715;DHT22;1873;49.988;8.674;2022-10-03T08:37:05;13.80;99.90
3715;DHT22;1873;49.988;8.674;2022-10-03T08:40:19;14.00;99.90
3715;DHT22;1873;49.988;8.674;2022-10-03T08:43:21;14.10;99.90
3715;DHT22;1873;49.988;8.674;2022-10-03T08:46:13;14.00;99.90
3715;DHT22;1873;49.988;8.674;2022-10-03T08:49:16;14.10;99.90
3715;DHT22;1873;49.988;8.674;2022-10-03T08:52:05;14.40;99.90
3715;DHT22;1873;49.988;8.674;2022-10-03T08:55:06;14.60;99.90
3715;DHT22;1873;49.988;8.674;2022-10-03T08:58:07;14.80;99.90
3715;DHT22;1873;49.988;8.674;2022-10-03T09:01:01;15.10;99.90
3715;DHT22;1873;49.988;8.674;2022-10-03T09:07:05;15.40;99.90
3715;DHT22;1873;49.988;8.674;2022-10-03T09:16:33;15.30;99.90
3715;DHT22;1873;49.988;8.674;2022-10-03T09:25:28;15.60;99.90
3715;DHT22;1873;49.988;8.674;2022-10-03T09:31:19;16.00;99.90
3715;DHT22;1873;49.988;8.674;2022-10-03T09:37:32;16.30;99.90
3715;DHT22;1873;49.988;8.674;2022-10-03T09:46:58;16.60;99.90
3715;DHT22;1873;49.988;8.674;2022-10-03T09:53:27;16.90;99.90
3715;DHT22;1873;49.988;8.674;2022-10-03T09:56:33;16.90;99.90
3715;DHT22;1873;49.988;8.674;2022-10-03T09:59:16;16.90;99.90
3715;DHT22;1873;49.988;8.674;2022-10-03T10:01:50;17.10;99.90
3715;DHT22;1873;49.988;8.674;2022-10-03T10:04:44;17.20;99.90
3715;DHT22;1873;49.988;8.674;2022-10-03T10:17:11;17.10;99.90
3715;DHT22;1873;49.988;8.674;2022-10-03T10:19:57;16.80;99.90
3715;DHT22;1873;49.988;8.674;2022-10-03T10:23:11;16.80;99.90
3715;DHT22;1873;49.988;8.674;2022-10-03T10:36:00;17.20;99.90
3715;DHT22;1873;49.988;8.674;2022-10-03T10:42:29;16.70;99.90
3715;DHT22;1873;49.988;8.674;2022-10-03T10:45:37;16.60;99.90
3715;DHT22;1873;49.988;8.674;2022-10-03T10:49:04;16.50;99.90
3715;DHT22;1873;49.988;8.674;2022-10-03T10:58:35;16.70;99.90
3715;DHT22;1873;49.988;8.674;2022-10-03T11:01:36;16.60;99.90
3715;DHT22;1873;49.988;8.674;2022-10-03T11:04:38;16.50;99.90
3715;DHT22;1873;49.988;8.674;2022-10-03T11:08:03;16.40;99.90
3715;DHT22;1873;49.988;8.674;2022-10-03T11:11:01;16.40;99.90
3715;DHT22;1873;49.988;8.674;2022-10-03T11:13:56;16.40;99.90
3715;DHT22;1873;49.988;8.674;2022-10-03T11:23:34;16.50;99.90
3715;DHT22;1873;49.988;8.674;2022-10-03T11:26:56;16.60;99.90
3715;DHT22;1873;49.988;8.674;2022-10-03T11:38:57;16.40;99.90
3715;DHT22;1873;49.988;8.674;2022-10-03T11:41:39;16.30;99.90
3715;DHT22;1873;49.988;8.674;2022-10-03T11:44:16;16.20;99.90
3715;DHT22;1873;49.988;8.674;2022-10-03T11:46:52;16.00;99.90
3715;DHT22;1873;49.988;8.674;2022-10-03T11:49:55;15.90;99.90
3715;DHT22;1873;49.988;8.674;2022-10-03T11:52:30;15.90;99.90
3715;DHT22;1873;49.988;8.674;2022-10-03T11:55:23;15.90;99.90
3715;DHT22;1873;49.988;8.674;2022-10-03T11:58:01;15.70;99.90
3715;DHT22;1873;49.988;8.674;2022-10-03T12:00:35;15.70;99.90
3715;DHT22;1873;49.988;8.674;2022-10-03T12:03:15;15.70;99.90
3715;DHT22;1873;49.988;8.674;2022-10-03T12:05:54;15.70;99.90
3715;DHT22;1873;49.988;8.674;2022-10-03T12:08:54;15.60;99.90
3715;DHT22;1873;49.988;8.674;2022-10-03T12:11:29;15.60;99.90
3715;DHT22;1873;49.988;8.674;2022-10-03T12:14:23;15.60;99.90
3715;DHT22;1873;49.988;8.674;2022-10-03T12:17:04;15.60;99.90
3715;DHT22;1873;49.988;8.674;2022-10-03T12:19:40;15.70;99.90
3715;DHT22;1873;49.988;8.674;2022-10-03T12:22:21;15.60;99.90
3715;DHT22;1873;49.988;8.674;2022-10-03T12:24:54;15.60;99.90
3715;DHT22;1873;49.988;8.674;2022-10-03T12:27:37;15.60;99.90
3715;DHT22;1873;49.988;8.674;2022-10-03T12:30:13;15.60;99.90
3715;DHT22;1873;49.988;8.674;2022-10-03T12:32:50;15.70;99.90
3715;DHT22;1873;49.988;8.674;2022-10-03T12:35:34;15.70;99.90
3715;DHT22;1873;49.988;8.674;2022-10-03T12:38:19;15.80;99.90
3715;DHT22;1873;49.988;8.674;2022-10-03T12:41:02;15.70;99.90
3715;DHT22;1873;49.988;8.674;2022-10-03T12:43:47;15.80;99.90
3715;DHT22;1873;49.988;8.674;2022-10-03T12:46:25;15.70;99.90
3715;DHT22;1873;49.988;8.674;2022-10-03T12:49:02;15.70;99.90
3715;DHT22;1873;49.988;8.674;2022-10-03T12:51:46;15.70;99.90
3715;DHT22;1873;49.988;8.674;2022-10-03T12:54:30;15.60;99.90
3715;DHT22;1873;49.988;8.674;2022-10-03T13:00:05;15.40;99.90
3715;DHT22;1873;49.988;8.674;2022-10-03T13:02:36;15.40;99.90
3715;DHT22;1873;49.988;8.674;2022-10-03T13:05:24;15.40;99.90
3715;DHT22;1873;49.988;8.674;2022-10-03T13:07:58;15.30;99.90
3715;DHT22;1873;49.988;8.674;2022-10-03T13:10:36;15.30;99.90
3715;DHT22;1873;49.988;8.674;2022-10-03T13:13:21;15.30;99.90
3715;DHT22;1873;49.988;8.674;2022-10-03T13:16:13;15.20;99.90
3715;DHT22;1873;49.988;8.674;2022-10-03T13:18:52;15.20;99.90
3715;DHT22;1873;49.988;8.674;2022-10-03T13:21:49;15.30;99.90
3715;DHT22;1873;49.988;8.674;2022-10-03T13:24:27;15.30;99.90
3715;DHT22;1873;49.988;8.674;2022-10-03T13:27:06;15.30;99.90
3715;DHT22;1873;49.988;8.674;2022-10-03T13:29:40;15.30;99.90
3715;DHT22;1873;49.988;8.674;2022-10-03T13:32:28;15.20;99.90
3715;DHT22;1873;49.988;8.674;2022-10-03T13:35:03;15.20;99.90
3715;DHT22;1873;49.988;8.674;2022-10-03T13:38:03;15.20;99.90
3715;DHT22;1873;49.988;8.674;2022-10-03T13:40:39;15.20;99.90
3715;DHT22;1873;49.988;8.674;2022-10-03T13:43:14;15.30;99.90
3715;DHT22;1873;49.988;8.674;2022-10-03T13:45:47;15.30;99.90
3715;DHT22;1873;49.988;8.674;2022-10-03T13:48:20;15.30;99.90
3715;DHT22;1873;49.988;8.674;2022-10-03T13:50:55;15.30;99.90
3715;DHT22;1873;49.988;8.674;2022-10-03T13:53:43;15.40;99.90
3715;DHT22;1873;49.988;8.674;2022-10-03T13:56:18;15.30;99.90
3715;DHT22;1873;49.988;8.674;2022-10-03T13:58:57;15.30;99.90
3715;DHT22;1873;49.988;8.674;2022-10-03T14:01:40;15.30;99.90
3715;DHT22;1873;49.988;8.674;2022-10-03T14:04:34;15.30;99.90
3715;DHT22;1873;49.988;8.674;2022-10-03T14:07:10;15.30;99.90
3715;DHT22;1873;49.988;8.674;2022-10-03T14:09:59;15.20;99.90
3715;DHT22;1873;49.988;8.674;2022-10-03T14:12:42;15.10;99.90
3715;DHT22;1873;49.988;8.674;2022-10-03T14:15:41;15.10;99.90
3715;DHT22;1873;49.988;8.674;2022-10-03T14:18:24;15.10;99.90
3715;DHT22;1873;49.988;8.674;2022-10-03T14:21:38;15.10;99.90
3715;DHT22;1873;49.988;8.674;2022-10-03T14:24:19;15.00;99.90
3715;DHT22;1873;49.988;8.674;2022-10-03T14:26:56;15.00;99.90
3715;DHT22;1873;49.988;8.674;2022-10-03T14:29:31;14.90;99.90
3715;DHT22;1873;49.988;8.674;2022-10-03T14:32:07;14.90;99.90
3715;DHT22;1873;49.988;8.674;2022-10-03T14:35:04;14.90;99.90
3715;DHT22;1873;49.988;8.674;2022-10-03T14:37:41;14.90;99.90
3715;DHT22;1873;49.988;8.674;2022-10-03T14:40:21;14.90;99.90
3715;DHT22;1873;49.988;8.674;2022-10-03T14:43:09;14.80;99.90
3715;DHT22;1873;49.988;8.674;2022-10-03T14:45:45;14.90;99.90
3715;DHT22;1873;49.988;8.674;2022-10-03T14:48:17;14.90;99.90
3715;DHT22;1873;49.988;8.674;2022-10-03T14:50:49;15.00;99.90
3715;DHT22;1873;49.988;8.674;2022-10-03T14:53:24;15.00;99.90
3715;DHT22;1873;49.988;8.674;2022-10-03T14:55:58;15.00;99.90
3715;DHT22;1873;49.988;8.674;2022-10-03T14:58:31;15.00;99.90
3715;DHT22;1873;49.988;8.674;2022-10-03T15:01:04;15.00;99.90
3715;DHT22;1873;49.988;8.674;2022-10-03T15:03:37;15.00;99.90
3715;DHT22;1873;49.988;8.674;2022-10-03T15:06:30;15.00;99.90
3715;DHT22;1873;49.988;8.674;2022-10-03T15:09:07;15.00;99.90
3715;DHT22;1873;49.988;8.674;2022-10-03T15:11:43;14.90;99.90
3715;DHT22;1873;49.988;8.674;2022-10-03T15:14:15;14.90;99.90
3715;DHT22;1873;49.988;8.674;2022-10-03T15:16:46;14.90;99.90
3715;DHT22;1873;49.988;8.674;2022-10-03T15:19:18;14.90;99.90
3715;DHT22;1873;49.988;8.674;2022-10-03T15:21:51;14.90;99.90
3715;DHT22;1873;49.988;8.674;2022-10-03T15:24:24;14.90;99.90
3715;DHT22;1873;49.988;8.674;2022-10-03T15:26:56;14.80;99.90
3715;DHT22;1873;49.988;8.674;2022-10-03T15:29:27;14.80;99.90
3715;DHT22;1873;49.988;8.674;2022-10-03T15:31:57;14.80;99.90
3715;DHT22;1873;49.988;8.674;2022-10-03T15:34:30;14.80;99.90
3715;DHT22;1873;49.988;8.674;2022-10-03T15:37:06;14.80;99.90
3715;DHT22;1873;49.988;8.674;2022-10-03T15:39:43;14.80;99.90
3715;DHT22;1873;49.988;8.674;2022-10-03T15:42:20;14.70;99.90
3715;DHT22;1873;49.988;8.674;2022-10-03T15:44:53;14.70;99.90
3715;DHT22;1873;49.988;8.674;2022-10-03T15:47:24;14.70;99.90
3715;DHT22;1873;49.988;8.674;2022-10-03T15:49:57;14.70;99.90
3715;DHT22;1873;49.988;8.674;2022-10-03T15:52:32;14.70;99.90
3715;DHT22;1873;49.988;8.674;2022-10-03T15:55:04;14.70;99.90
3715;DHT22;1873;49.988;8.674;2022-10-03T15:57:43;14.60;99.90
3715;DHT22;1873;49.988;8.674;2022-10-03T16:00:22;14.60;99.90
3715;DHT22;1873;49.988;8.674;2022-10-03T16:03:02;14.60;99.90
3715;DHT22;1873;49.988;8.674;2022-10-03T16:05:34;14.50;99.90
3715;DHT22;1873;49.988;8.674;2022-10-03T16:08:07;14.50;99.90
3715;DHT22;1873;49.988;8.674;2022-10-03T16:10:41;14.50;99.90
3715;DHT22;1873;49.988;8.674;2022-10-03T16:13:23;14.50;99.90
3715;DHT22;1873;49.988;8.674;2022-10-03T16:16:08;14.60;99.90
3715;DHT22;1873;49.988;8.674;2022-10-03T16:18:52;14.60;99.90
3715;DHT22;1873;49.988;8.674;2022-10-03T16:21:41;14.50;99.90
3715;DHT22;1873;49.988;8.674;2022-10-03T16:24:20;14.50;99.90
3715;DHT22;1873;49.988;8.674;2022-10-03T16:27:00;14.50;99.90
3715;DHT22;1873;49.988;8.674;2022-10-03T16:29:34;14.50;99.90
3715;DHT22;1873;49.988;8.674;2022-10-03T16:32:06;14.50;99.90
3715;DHT22;1873;49.988;8.674;2022-10-03T16:34:40;14.50;99.90
3715;DHT22;1873;49.988;8.674;2022-10-03T16:37:24;14.40;99.90
3715;DHT22;1873;49.988;8.674;2022-10-03T16:39:59;14.40;99.90
3715;DHT22;1873;49.988;8.674;2022-10-03T16:42:38;14.40;99.90
3715;DHT22;1873;49.988;8.674;2022-10-03T16:45:19;14.40;99.90
3715;DHT22;1873;49.988;8.674;2022-10-03T16:47:50;14.40;99.90
3715;DHT22;1873;49.988;8.674;2022-10-03T16:50:44;14.40;99.90
3715;DHT22;1873;49.988;8.674;2022-10-03T16:53:16;14.40;99.90
3715;DHT22;1873;49.988;8.674;2022-10-03T16:55:48;14.30;99.90
3715;DHT22;1873;49.988;8.674;2022-10-03T16:58:26;14.30;99.90
3715;DHT22;1873;49.988;8.674;2022-10-03T17:00:59;14.30;99.90
3715;DHT22;1873;49.988;8.674;2022-10-03T17:03:55;14.30;99.90
3715;DHT22;1873;49.988;8.674;2022-10-03T17:06:30;14.40;99.90
3715;DHT22;1873;49.988;8.674;2022-10-03T17:09:04;14.30;99.90
3715;DHT22;1873;49.988;8.674;2022-10-03T17:11:36;14.30;99.90
3715;DHT22;1873;49.988;8.674;2022-10-03T17:14:09;14.20;99.90
3715;DHT22;1873;49.988;8.674;2022-10-03T17:16:39;14.20;99.90
3715;DHT22;1873;49.988;8.674;2022-10-03T17:19:18;14.20;99.90
3715;DHT22;1873;49.988;8.674;2022-10-03T17:21:50;14.20;99.90
3715;DHT22;1873;49.988;8.674;2022-10-03T17:24:29;14.20;99.90
3715;DHT22;1873;49.988;8.674;2022-10-03T17:27:11;14.20;99.90
3715;DHT22;1873;49.988;8.674;2022-10-03T17:29:46;14.10;99.90
3715;DHT22;1873;49.988;8.674;2022-10-03T17:32:20;14.00;99.90
3715;DHT22;1873;49.988;8.674;2022-10-03T17:34:54;14.10;99.90
3715;DHT22;1873;49.988;8.674;2022-10-03T17:37:58;14.00;99.90
3715;DHT22;1873;49.988;8.674;2022-10-03T17:40:55;14.00;99.90
3715;DHT22;1873;49.988;8.674;2022-10-03T17:43:34;14.00;99.90
3715;DHT22;1873;49.988;8.674;2022-10-03T17:46:15;13.90;99.90
3715;DHT22;1873;49.988;8.674;2022-10-03T17:48:47;14.00;99.90
3715;DHT22;1873;49.988;8.674;2022-10-03T17:51:44;14.00;99.90
3715;DHT22;1873;49.988;8.674;2022-10-03T17:54:27;13.90;99.90
3715;DHT22;1873;49.988;8.674;2022-10-03T17:57:05;13.90;99.90
3715;DHT22;1873;49.988;8.674;2022-10-03T17:59:43;13.90;99.90
3715;DHT22;1873;49.988;8.674;2022-10-03T18:02:19;13.90;99.90
3715;DHT22;1873;49.988;8.674;2022-10-03T18:04:57;13.80;99.90
3715;DHT22;1873;49.988;8.674;2022-10-03T18:07:29;13.80;99.90
3715;DHT22;1873;49.988;8.674;2022-10-03T18:09:57;13.70;99.90
3715;DHT22;1873;49.988;8.674;2022-10-03T18:12:33;13.70;99.90
3715;DHT22;1873;49.988;8.674;2022-10-03T18:15:32;13.60;99.90
3715;DHT22;1873;49.988;8.674;2022-10-03T18:18:51;13.50;99.90
3715;DHT22;1873;49.988;8.674;2022-10-03T18:21:33;13.50;99.90
3715;DHT22;1873;49.988;8.674;2022-10-03T18:24:20;13.40;99.90
3715;DHT22;1873;49.988;8.674;2022-10-03T18:26:56;13.40;99.90
3715;DHT22;1873;49.988;8.674;2022-10-03T18:29:30;13.40;99.90
3715;DHT22;1873;49.988;8.674;2022-10-03T18:32:11;13.40;99.90
3715;DHT22;1873;49.988;8.674;2022-10-03T18:34:45;13.30;99.90
3715;DHT22;1873;49.988;8.674;2022-10-03T18:40:21;13.20;99.90
3715;DHT22;1873;49.988;8.674;2022-10-03T18:42:52;13.10;99.90
3715;DHT22;1873;49.988;8.674;2022-10-03T18:45:24;13.00;99.90
3715;DHT22;1873;49.988;8.674;2022-10-03T18:47:58;13.00;99.90
3715;DHT22;1873;49.988;8.674;2022-10-03T18:50:42;13.00;99.90
3715;DHT22;1873;49.988;8.674;2022-10-03T18:53:18;12.90;99.90
3715;DHT22;1873;49.988;8.674;2022-10-03T18:55:55;13.00;99.90
3715;DHT22;1873;49.988;8.674;2022-10-03T18:58:27;12.90;99.90
3715;DHT22;1873;49.988;8.674;2022-10-03T19:01:00;12.90;99.90
3715;DHT22;1873;49.988;8.674;2022-10-03T19:03:34;12.80;99.90
3715;DHT22;1873;49.988;8.674;2022-10-03T19:06:07;12.70;99.90
3715;DHT22;1873;49.988;8.674;2022-10-03T19:08:48;12.70;99.90
3715;DHT22;1873;49.988;8.674;2022-10-03T19:11:20;12.70;99.90
3715;DHT22;1873;49.988;8.674;2022-10-03T19:13:57;12.70;99.90
3715;DHT22;1873;49.988;8.674;2022-10-03T19:19:27;12.70;99.90
3715;DHT22;1873;49.988;8.674;2022-10-03T19:22:04;12.60;99.90
3715;DHT22;1873;49.988;8.674;2022-10-03T19:24:33;12.60;99.90
3715;DHT22;1873;49.988;8.674;2022-10-03T19:27:38;12.60;99.90
3715;DHT22;1873;49.988;8.674;2022-10-03T19:30:23;12.60;99.90
3715;DHT22;1873;49.988;8.674;2022-10-03T19:32:59;12.60;99.90
3715;DHT22;1873;49.988;8.674;2022-10-03T19:36:11;12.50;99.90
3715;DHT22;1873;49.988;8.674;2022-10-03T19:42:35;12.50;99.90
3715;DHT22;1873;49.988;8.674;2022-10-03T19:45:11;12.40;99.90
3715;DHT22;1873;49.988;8.674;2022-10-03T19:47:47;12.30;99.90
3715;DHT22;1873;49.988;8.674;2022-10-03T19:50:20;12.30;99.90
3715;DHT22;1873;49.988;8.674;2022-10-03T19:52:49;12.20;99.90
3715;DHT22;1873;49.988;8.674;2022-10-03T19:55:20;12.20;99.90
3715;DHT22;1873;49.988;8.674;2022-10-03T19:57:53;12.20;99.90
3715;DHT22;1873;49.988;8.674;2022-10-03T20:00:28;12.10;99.90
3715;DHT22;1873;49.988;8.674;2022-10-03T20:03:13;12.10;99.90
3715;DHT22;1873;49.988;8.674;2022-10-03T20:05:58;12.10;99.90
3715;DHT22;1873;49.988;8.674;2022-10-03T20:08:33;12.10;99.90
3715;DHT22;1873;49.988;8.674;2022-10-03T20:11:18;12.10;99.90
3715;DHT22;1873;49.988;8.674;2022-10-03T20:13:50;12.10;99.90